sensor_id;sensor_type;location;lat;lon;timestamp;temperature;humidity
42841;DHT22;28491;46.898;7.660;2022-08-11T00:01:14;17.40;56.70
42841;DHT22;28491;46.898;7.660;2022-08-11T00:03:50;17.40;57.50
42841;DHT22;28491;46.898;7.660;2022-08-11T00:06:31;17.50;57.60
42841;DHT22;28491;46.898;7.660;2022-08-11T00:09:00;17.40;59.00
42841;DHT22;28491;46.898;7.660;2022-08-11T00:11:38;17.30;60.30
42841;DHT22;28491;46.898;7.660;2022-08-11T00:14:16;17.20;60.50
42841;DHT22;28491;46.898;7.660;2022-08-11T00:16:52;17.10;61.00
42841;DHT22;28491;46.898;7.660;2022-08-11T00:19:24;17.10;61.10
42841;DHT22;28491;46.898;7.660;2022-08-11T00:21:51;17.10;60.70
42841;DHT22;28491;46.898;7.660;2022-08-11T00:24:17;17.10;61.00
42841;DHT22;28491;46.898;7.660;2022-08-11T00:26:49;17.00;61.10
42841;DHT22;28491;46.898;7.660;2022-08-11T00:29:15;17.00;61.20
42841;DHT22;28491;46.898;7.660;2022-08-11T00:31:50;17.00;61.50
42841;DHT22;28491;46.898;7.660;2022-08-11T00:34:19;16.90;61.40
42841;DHT22;28491;46.898;7.660;2022-08-11T00:36:57;16.90;61.40
42841;DHT22;28491;46.898;7.660;2022-08-11T00:39:25;16.90;61.50
42841;DHT22;28491;46.898;7.660;2022-08-11T00:45:45;16.80;61.80
42841;DHT22;28491;46.898;7.660;2022-08-11T00:48:54;16.80;61.70
42841;DHT22;28491;46.898;7.660;2022-08-11T01:00:14;16.60;62.80
42841;DHT22;28491;46.898;7.660;2022-08-11T01:08:25;16.50;63.10
42841;DHT22;28491;46.898;7.660;2022-08-11T01:46:05;16.40;63.40
42841;DHT22;28491;46.898;7.660;2022-08-11T01:54:26;16.40;63.70
42841;DHT22;28491;46.898;7.660;2022-08-11T02:00:11;16.40;63.10
42841;DHT22;28491;46.898;7.660;2022-08-11T02:02:47;16.40;63.50
42841;DHT22;28491;46.898;7.660;2022-08-11T02:11:21;16.40;63.40
42841;DHT22;28491;46.898;7.660;2022-08-11T02:14:06;16.30;63.60
42841;DHT22;28491;46.898;7.660;2022-08-11T02:19:20;16.30;63.80
42841;DHT22;28491;46.898;7.660;2022-08-11T02:25:37;16.10;64.00
42841;DHT22;28491;46.898;7.660;2022-08-11T02:31:12;15.90;64.60
42841;DHT22;28491;46.898;7.660;2022-08-11T02:34:21;15.80;65.00
42841;DHT22;28491;46.898;7.660;2022-08-11T02:43:18;15.70;65.00
42841;DHT22;28491;46.898;7.660;2022-08-11T02:51:54;15.60;65.60
42841;DHT22;28491;46.898;7.660;2022-08-11T02:57:41;15.60;65.60
42841;DHT22;28491;46.898;7.660;2022-08-11T03:00:12;15.60;65.80
42841;DHT22;28491;46.898;7.660;2022-08-11T03:03:06;15.60;65.70
42841;DHT22;28491;46.898;7.660;2022-08-11T03:05:56;15.50;66.00
42841;DHT22;28491;46.898;7.660;2022-08-11T03:09:02;15.50;65.90
42841;DHT22;28491;46.898;7.660;2022-08-11T03:12:01;15.50;66.00
42841;DHT22;28491;46.898;7.660;2022-08-11T03:14:55;15.40;66.20
42841;DHT22;28491;46.898;7.660;2022-08-11T03:18:03;15.40;66.10
42841;DHT22;28491;46.898;7.660;2022-08-11T03:20:52;15.40;66.50
42841;DHT22;28491;46.898;7.660;2022-08-11T03:23:37;15.40;66.00
42841;DHT22;28491;46.898;7.660;2022-08-11T03:26:31;15.40;66.00
42841;DHT22;28491;46.898;7.660;2022-08-11T03:29:24;15.20;66.50
42841;DHT22;28491;46.898;7.660;2022-08-11T03:32:00;15.30;66.40
42841;DHT22;28491;46.898;7.660;2022-08-11T03:34:28;15.30;66.50
42841;DHT22;28491;46.898;7.660;2022-08-11T03:42:25;15.20;66.60
42841;DHT22;28491;46.898;7.660;2022-08-11T03:45:06;15.20;66.50
42841;DHT22;28491;46.898;7.660;2022-08-11T03:47:51;15.30;66.00
42841;DHT22;28491;46.898;7.660;2022-08-11T04:02:25;15.10;67.00
42841;DHT22;28491;46.898;7.660;2022-08-11T04:13:12;15.10;67.10
42841;DHT22;28491;46.898;7.660;2022-08-11T04:16:09;15.20;67.40
42841;DHT22;28491;46.898;7.660;2022-08-11T04:27:42;15.00;67.30
42841;DHT22;28491;46.898;7.660;2022-08-11T04:30:18;15.00;67.20
42841;DHT22;28491;46.898;7.660;2022-08-11T04:38:57;15.20;67.20
42841;DHT22;28491;46.898;7.660;2022-08-11T04:48:01;15.10;67.10
42841;DHT22;28491;46.898;7.660;2022-08-11T04:54:42;15.10;67.50
42841;DHT22;28491;46.898;7.660;2022-08-11T04:57:58;15.20;67.50
42841;DHT22;28491;46.898;7.660;2022-08-11T05:11:06;15.40;67.30
42841;DHT22;28491;46.898;7.660;2022-08-11T05:17:13;15.50;67.10
42841;DHT22;28491;46.898;7.660;2022-08-11T05:19:59;15.60;66.90
42841;DHT22;28491;46.898;7.660;2022-08-11T05:22:48;15.80;67.00
42841;DHT22;28491;46.898;7.660;2022-08-11T05:25:34;15.90;66.40
42841;DHT22;28491;46.898;7.660;2022-08-11T05:28:52;16.10;65.80
42841;DHT22;28491;46.898;7.660;2022-08-11T05:31:39;16.10;65.60
42841;DHT22;28491;46.898;7.660;2022-08-11T05:34:50;16.10;65.80
42841;DHT22;28491;46.898;7.660;2022-08-11T05:40:11;17.00;63.80
42841;DHT22;28491;46.898;7.660;2022-08-11T05:43:00;18.30;60.60
42841;DHT22;28491;46.898;7.660;2022-08-11T05:45:56;19.40;52.40
42841;DHT22;28491;46.898;7.660;2022-08-11T05:48:40;20.20;44.90
42841;DHT22;28491;46.898;7.660;2022-08-11T05:51:33;20.90;43.10
42841;DHT22;28491;46.898;7.660;2022-08-11T05:54:19;21.30;39.50
42841;DHT22;28491;46.898;7.660;2022-08-11T05:57:03;21.40;37.30
42841;DHT22;28491;46.898;7.660;2022-08-11T05:59:30;21.80;36.60
42841;DHT22;28491;46.898;7.660;2022-08-11T06:02:04;22.00;36.30
42841;DHT22;28491;46.898;7.660;2022-08-11T06:04:30;21.90;36.60
42841;DHT22;28491;46.898;7.660;2022-08-11T06:06:59;22.40;36.10
42841;DHT22;28491;46.898;7.660;2022-08-11T06:11:56;22.80;35.10
42841;DHT22;28491;46.898;7.660;2022-08-11T06:14:22;22.90;34.50
42841;DHT22;28491;46.898;7.660;2022-08-11T06:16:49;23.10;34.50
42841;DHT22;28491;46.898;7.660;2022-08-11T06:19:19;23.40;33.60
42841;DHT22;28491;46.898;7.660;2022-08-11T06:21:47;23.60;33.90
42841;DHT22;28491;46.898;7.660;2022-08-11T06:24:14;24.00;33.60
42841;DHT22;28491;46.898;7.660;2022-08-11T06:26:46;24.00;32.40
42841;DHT22;28491;46.898;7.660;2022-08-11T06:29:13;24.10;33.40
42841;DHT22;28491;46.898;7.660;2022-08-11T06:31:52;24.00;32.50
42841;DHT22;28491;46.898;7.660;2022-08-11T06:34:39;24.30;32.40
42841;DHT22;28491;46.898;7.660;2022-08-11T06:37:18;24.80;33.00
42841;DHT22;28491;46.898;7.660;2022-08-11T06:40:10;25.10;31.60
42841;DHT22;28491;46.898;7.660;2022-08-11T06:43:15;25.10;31.80
42841;DHT22;28491;46.898;7.660;2022-08-11T06:46:00;25.30;30.10
42841;DHT22;28491;46.898;7.660;2022-08-11T06:48:30;25.30;31.00
42841;DHT22;28491;46.898;7.660;2022-08-11T06:51:01;25.70;30.70
42841;DHT22;28491;46.898;7.660;2022-08-11T06:53:56;25.90;31.10
42841;DHT22;28491;46.898;7.660;2022-08-11T06:56:37;26.00;31.00
42841;DHT22;28491;46.898;7.660;2022-08-11T06:59:22;26.20;31.50
42841;DHT22;28491;46.898;7.660;2022-08-11T07:02:11;26.00;31.40
42841;DHT22;28491;46.898;7.660;2022-08-11T07:04:48;26.10;30.80
42841;DHT22;28491;46.898;7.660;2022-08-11T07:12:59;26.80;29.60
42841;DHT22;28491;46.898;7.660;2022-08-11T07:15:46;27.00;30.90
42841;DHT22;28491;46.898;7.660;2022-08-11T07:18:16;27.10;30.20
42841;DHT22;28491;46.898;7.660;2022-08-11T07:21:28;27.60;31.50
42841;DHT22;28491;46.898;7.660;2022-08-11T07:24:17;28.10;32.00
42841;DHT22;28491;46.898;7.660;2022-08-11T07:27:10;28.30;31.70
42841;DHT22;28491;46.898;7.660;2022-08-11T07:29:56;28.00;32.30
42841;DHT22;28491;46.898;7.660;2022-08-11T07:32:30;28.50;31.60
42841;DHT22;28491;46.898;7.660;2022-08-11T07:35:06;28.70;32.80
42841;DHT22;28491;46.898;7.660;2022-08-11T07:37:33;28.90;32.10
42841;DHT22;28491;46.898;7.660;2022-08-11T07:40:00;28.80;32.40
42841;DHT22;28491;46.898;7.660;2022-08-11T07:42:30;28.60;30.70
42841;DHT22;28491;46.898;7.660;2022-08-11T07:44:56;27.40;31.20
42841;DHT22;28491;46.898;7.660;2022-08-11T07:47:44;26.50;32.40
42841;DHT22;28491;46.898;7.660;2022-08-11T07:50:29;25.70;32.50
42841;DHT22;28491;46.898;7.660;2022-08-11T07:53:13;25.30;33.40
42841;DHT22;28491;46.898;7.660;2022-08-11T07:55:41;24.70;33.30
42841;DHT22;28491;46.898;7.660;2022-08-11T07:58:07;24.60;33.60
42841;DHT22;28491;46.898;7.660;2022-08-11T08:00:54;24.50;34.30
42841;DHT22;28491;46.898;7.660;2022-08-11T08:03:40;24.50;33.30
42841;DHT22;28491;46.898;7.660;2022-08-11T08:06:26;24.30;35.60
42841;DHT22;28491;46.898;7.660;2022-08-11T08:09:11;24.10;38.10
42841;DHT22;28491;46.898;7.660;2022-08-11T08:11:56;24.30;37.90
42841;DHT22;28491;46.898;7.660;2022-08-11T08:14:43;24.40;37.20
42841;DHT22;28491;46.898;7.660;2022-08-11T08:17:29;24.30;37.80
42841;DHT22;28491;46.898;7.660;2022-08-11T08:20:15;24.40;38.60
42841;DHT22;28491;46.898;7.660;2022-08-11T08:22:49;24.60;36.60
42841;DHT22;28491;46.898;7.660;2022-08-11T08:25:22;24.70;35.40
42841;DHT22;28491;46.898;7.660;2022-08-11T08:27:49;24.60;36.80
42841;DHT22;28491;46.898;7.660;2022-08-11T08:30:15;24.90;41.30
42841;DHT22;28491;46.898;7.660;2022-08-11T08:33:00;25.00;40.00
42841;DHT22;28491;46.898;7.660;2022-08-11T08:35:26;24.90;37.30
42841;DHT22;28491;46.898;7.660;2022-08-11T08:37:55;25.00;39.10
42841;DHT22;28491;46.898;7.660;2022-08-11T08:40:21;25.00;37.00
42841;DHT22;28491;46.898;7.660;2022-08-11T08:42:57;25.10;41.20
42841;DHT22;28491;46.898;7.660;2022-08-11T08:45:25;25.30;40.00
42841;DHT22;28491;46.898;7.660;2022-08-11T08:48:08;25.30;40.70
42841;DHT22;28491;46.898;7.660;2022-08-11T08:50:41;25.40;40.00
42841;DHT22;28491;46.898;7.660;2022-08-11T08:53:29;25.40;37.10
42841;DHT22;28491;46.898;7.660;2022-08-11T08:55:59;25.50;38.80
42841;DHT22;28491;46.898;7.660;2022-08-11T08:58:25;25.50;38.10
42841;DHT22;28491;46.898;7.660;2022-08-11T09:00:53;25.40;38.10
42841;DHT22;28491;46.898;7.660;2022-08-11T09:03:20;25.50;39.90
42841;DHT22;28491;46.898;7.660;2022-08-11T09:05:47;25.80;37.90
42841;DHT22;28491;46.898;7.660;2022-08-11T09:08:16;25.70;37.80
42841;DHT22;28491;46.898;7.660;2022-08-11T09:10:45;25.40;40.00
42841;DHT22;28491;46.898;7.660;2022-08-11T09:13:11;25.50;37.80
42841;DHT22;28491;46.898;7.660;2022-08-11T09:15:36;25.40;34.60
42841;DHT22;28491;46.898;7.660;2022-08-11T09:18:04;25.80;36.50
42841;DHT22;28491;46.898;7.660;2022-08-11T09:20:36;26.00;39.10
42841;DHT22;28491;46.898;7.660;2022-08-11T09:23:05;26.10;37.50
42841;DHT22;28491;46.898;7.660;2022-08-11T09:25:54;26.20;34.40
42841;DHT22;28491;46.898;7.660;2022-08-11T09:28:41;26.30;37.80
42841;DHT22;28491;46.898;7.660;2022-08-11T09:31:08;26.50;38.30
42841;DHT22;28491;46.898;7.660;2022-08-11T09:33:36;26.50;34.70
42841;DHT22;28491;46.898;7.660;2022-08-11T09:36:02;26.50;33.70
42841;DHT22;28491;46.898;7.660;2022-08-11T09:38:49;26.60;32.20
42841;DHT22;28491;46.898;7.660;2022-08-11T09:41:34;26.30;31.70
42841;DHT22;28491;46.898;7.660;2022-08-11T09:44:00;26.30;34.20
42841;DHT22;28491;46.898;7.660;2022-08-11T09:46:45;26.60;32.10
42841;DHT22;28491;46.898;7.660;2022-08-11T09:49:11;26.50;31.90
42841;DHT22;28491;46.898;7.660;2022-08-11T09:51:37;26.60;32.10
42841;DHT22;28491;46.898;7.660;2022-08-11T09:54:04;26.50;33.20
42841;DHT22;28491;46.898;7.660;2022-08-11T09:56:33;26.70;32.40
42841;DHT22;28491;46.898;7.660;2022-08-11T09:59:20;26.50;32.70
42841;DHT22;28491;46.898;7.660;2022-08-11T10:01:48;26.80;32.20
42841;DHT22;28491;46.898;7.660;2022-08-11T10:04:15;27.00;32.00
42841;DHT22;28491;46.898;7.660;2022-08-11T10:06:44;27.20;33.20
42841;DHT22;28491;46.898;7.660;2022-08-11T10:09:58;27.10;34.20
42841;DHT22;28491;46.898;7.660;2022-08-11T10:12:33;27.50;33.70
42841;DHT22;28491;46.898;7.660;2022-08-11T10:15:07;27.80;35.10
42841;DHT22;28491;46.898;7.660;2022-08-11T10:18:01;27.90;34.90
42841;DHT22;28491;46.898;7.660;2022-08-11T10:20:47;28.10;34.70
42841;DHT22;28491;46.898;7.660;2022-08-11T10:23:15;28.10;35.60
42841;DHT22;28491;46.898;7.660;2022-08-11T10:25:59;28.20;35.40
42841;DHT22;28491;46.898;7.660;2022-08-11T10:28:43;28.30;35.30
42841;DHT22;28491;46.898;7.660;2022-08-11T10:31:09;28.40;33.40
42841;DHT22;28491;46.898;7.660;2022-08-11T10:33:54;28.40;33.70
42841;DHT22;28491;46.898;7.660;2022-08-11T10:36:33;28.60;33.30
42841;DHT22;28491;46.898;7.660;2022-08-11T10:39:01;28.70;33.90
42841;DHT22;28491;46.898;7.660;2022-08-11T10:41:27;28.50;34.00
42841;DHT22;28491;46.898;7.660;2022-08-11T10:44:14;28.80;36.50
42841;DHT22;28491;46.898;7.660;2022-08-11T10:46:40;28.90;34.50
42841;DHT22;28491;46.898;7.660;2022-08-11T10:49:25;28.80;33.90
42841;DHT22;28491;46.898;7.660;2022-08-11T10:51:52;29.20;37.30
42841;DHT22;28491;46.898;7.660;2022-08-11T10:54:39;29.40;35.40
42841;DHT22;28491;46.898;7.660;2022-08-11T10:57:24;29.70;35.80
42841;DHT22;28491;46.898;7.660;2022-08-11T11:00:10;29.90;35.20
42841;DHT22;28491;46.898;7.660;2022-08-11T11:02:43;30.10;36.10
42841;DHT22;28491;46.898;7.660;2022-08-11T11:05:13;30.10;34.90
42841;DHT22;28491;46.898;7.660;2022-08-11T11:08:08;29.90;33.40
42841;DHT22;28491;46.898;7.660;2022-08-11T11:10:57;30.20;35.90
42841;DHT22;28491;46.898;7.660;2022-08-11T11:13:23;30.30;35.00
42841;DHT22;28491;46.898;7.660;2022-08-11T11:16:09;30.50;35.50
42841;DHT22;28491;46.898;7.660;2022-08-11T11:18:56;30.60;34.70
42841;DHT22;28491;46.898;7.660;2022-08-11T11:21:24;30.70;35.40
42841;DHT22;28491;46.898;7.660;2022-08-11T11:24:01;30.70;34.70
42841;DHT22;28491;46.898;7.660;2022-08-11T11:32:17;29.80;30.00
42841;DHT22;28491;46.898;7.660;2022-08-11T11:37:32;30.30;34.10
42841;DHT22;28491;46.898;7.660;2022-08-11T11:40:00;30.40;33.90
42841;DHT22;28491;46.898;7.660;2022-08-11T11:42:27;30.50;34.70
42841;DHT22;28491;46.898;7.660;2022-08-11T11:44:54;30.70;34.60
42841;DHT22;28491;46.898;7.660;2022-08-11T11:47:20;30.80;35.80
42841;DHT22;28491;46.898;7.660;2022-08-11T11:49:47;30.50;31.60
42841;DHT22;28491;46.898;7.660;2022-08-11T11:52:15;30.50;34.10
42841;DHT22;28491;46.898;7.660;2022-08-11T11:54:47;30.80;35.90
42841;DHT22;28491;46.898;7.660;2022-08-11T11:57:16;31.00;36.50
42841;DHT22;28491;46.898;7.660;2022-08-11T12:00:03;30.90;34.70
42841;DHT22;28491;46.898;7.660;2022-08-11T12:02:49;31.00;31.90
42841;DHT22;28491;46.898;7.660;2022-08-11T12:05:16;30.70;31.80
42841;DHT22;28491;46.898;7.660;2022-08-11T12:07:42;30.50;33.20
42841;DHT22;28491;46.898;7.660;2022-08-11T12:10:26;30.20;32.90
42841;DHT22;28491;46.898;7.660;2022-08-11T12:12:52;30.00;31.70
42841;DHT22;28491;46.898;7.660;2022-08-11T12:15:36;30.10;34.10
42841;DHT22;28491;46.898;7.660;2022-08-11T12:18:03;30.00;32.30
42841;DHT22;28491;46.898;7.660;2022-08-11T12:20:29;29.90;33.00
42841;DHT22;28491;46.898;7.660;2022-08-11T12:22:56;29.80;31.40
42841;DHT22;28491;46.898;7.660;2022-08-11T12:25:41;30.00;31.60
42841;DHT22;28491;46.898;7.660;2022-08-11T12:28:27;30.00;31.20
42841;DHT22;28491;46.898;7.660;2022-08-11T12:30:54;29.80;30.60
42841;DHT22;28491;46.898;7.660;2022-08-11T12:33:20;30.00;28.90
42841;DHT22;28491;46.898;7.660;2022-08-11T12:35:47;29.90;31.50
42841;DHT22;28491;46.898;7.660;2022-08-11T12:38:16;30.00;31.10
42841;DHT22;28491;46.898;7.660;2022-08-11T12:40:44;30.20;30.80
42841;DHT22;28491;46.898;7.660;2022-08-11T12:43:31;30.10;30.00
42841;DHT22;28491;46.898;7.660;2022-08-11T12:46:21;29.90;30.10
42841;DHT22;28491;46.898;7.660;2022-08-11T12:48:51;30.00;30.50
42841;DHT22;28491;46.898;7.660;2022-08-11T12:51:49;30.10;30.80
42841;DHT22;28491;46.898;7.660;2022-08-11T12:54:28;30.10;31.40
42841;DHT22;28491;46.898;7.660;2022-08-11T12:57:02;30.20;32.40
42841;DHT22;28491;46.898;7.660;2022-08-11T12:59:48;30.00;31.70
42841;DHT22;28491;46.898;7.660;2022-08-11T13:02:33;30.00;30.90
42841;DHT22;28491;46.898;7.660;2022-08-11T13:05:18;30.00;31.90
42841;DHT22;28491;46.898;7.660;2022-08-11T13:07:46;29.70;29.60
42841;DHT22;28491;46.898;7.660;2022-08-11T13:10:14;29.50;29.00
42841;DHT22;28491;46.898;7.660;2022-08-11T13:13:01;29.60;29.60
42841;DHT22;28491;46.898;7.660;2022-08-11T13:15:27;29.60;27.30
42841;DHT22;28491;46.898;7.660;2022-08-11T13:17:53;29.50;28.00
42841;DHT22;28491;46.898;7.660;2022-08-11T13:20:23;29.50;27.90
42841;DHT22;28491;46.898;7.660;2022-08-11T13:22:52;29.70;28.10
42841;DHT22;28491;46.898;7.660;2022-08-11T13:25:20;29.80;28.10
42841;DHT22;28491;46.898;7.660;2022-08-11T13:27:48;30.00;28.20
42841;DHT22;28491;46.898;7.660;2022-08-11T13:30:15;30.00;29.30
42841;DHT22;28491;46.898;7.660;2022-08-11T13:33:18;29.80;30.20
42841;DHT22;28491;46.898;7.660;2022-08-11T13:35:45;29.90;32.20
42841;DHT22;28491;46.898;7.660;2022-08-11T13:38:13;29.90;30.10
42841;DHT22;28491;46.898;7.660;2022-08-11T13:40:40;29.80;29.00
42841;DHT22;28491;46.898;7.660;2022-08-11T13:43:07;29.70;28.90
42841;DHT22;28491;46.898;7.660;2022-08-11T13:45:34;29.80;28.60
42841;DHT22;28491;46.898;7.660;2022-08-11T13:48:03;30.00;29.00
42841;DHT22;28491;46.898;7.660;2022-08-11T13:50:31;30.00;29.90
42841;DHT22;28491;46.898;7.660;2022-08-11T13:53:16;30.00;28.60
42841;DHT22;28491;46.898;7.660;2022-08-11T13:55:44;30.00;29.60
42841;DHT22;28491;46.898;7.660;2022-08-11T13:58:10;30.00;30.00
42841;DHT22;28491;46.898;7.660;2022-08-11T14:00:37;29.80;29.60
42841;DHT22;28491;46.898;7.660;2022-08-11T14:03:05;29.70;29.10
42841;DHT22;28491;46.898;7.660;2022-08-11T14:05:40;29.80;29.20
42841;DHT22;28491;46.898;7.660;2022-08-11T14:57:06;29.30;29.00
42841;DHT22;28491;46.898;7.660;2022-08-11T14:59:32;29.50;30.00
42841;DHT22;28491;46.898;7.660;2022-08-11T15:02:00;29.60;30.40
42841;DHT22;28491;46.898;7.660;2022-08-11T15:04:45;29.60;29.80
42841;DHT22;28491;46.898;7.660;2022-08-11T15:07:11;29.40;28.40
42841;DHT22;28491;46.898;7.660;2022-08-11T15:09:39;29.20;28.50
42841;DHT22;28491;46.898;7.660;2022-08-11T15:12:09;29.20;28.20
42841;DHT22;28491;46.898;7.660;2022-08-11T15:14:42;29.00;28.10
42841;DHT22;28491;46.898;7.660;2022-08-11T15:17:41;29.00;28.20
42841;DHT22;28491;46.898;7.660;2022-08-11T15:20:11;28.80;28.40
42841;DHT22;28491;46.898;7.660;2022-08-11T15:22:56;28.80;28.80
42841;DHT22;28491;46.898;7.660;2022-08-11T15:25:44;28.70;28.40
42841;DHT22;28491;46.898;7.660;2022-08-11T15:28:13;28.80;29.20
42841;DHT22;28491;46.898;7.660;2022-08-11T15:31:01;28.60;27.90
42841;DHT22;28491;46.898;7.660;2022-08-11T15:33:50;28.50;28.00
42841;DHT22;28491;46.898;7.660;2022-08-11T15:36:36;28.50;28.60
42841;DHT22;28491;46.898;7.660;2022-08-11T15:39:26;28.50;28.60
42841;DHT22;28491;46.898;7.660;2022-08-11T15:44:43;28.40;28.70
42841;DHT22;28491;46.898;7.660;2022-08-11T15:47:49;28.40;28.90
42841;DHT22;28491;46.898;7.660;2022-08-11T15:50:24;28.40;28.60
42841;DHT22;28491;46.898;7.660;2022-08-11T15:52:55;28.30;28.30
42841;DHT22;28491;46.898;7.660;2022-08-11T15:55:22;28.30;29.60
42841;DHT22;28491;46.898;7.660;2022-08-11T15:57:49;28.20;28.90
42841;DHT22;28491;46.898;7.660;2022-08-11T16:00:36;28.00;29.00
42841;DHT22;28491;46.898;7.660;2022-08-11T16:03:23;28.00;28.40
42841;DHT22;28491;46.898;7.660;2022-08-11T16:06:11;28.00;29.70
42841;DHT22;28491;46.898;7.660;2022-08-11T16:08:39;28.00;29.30
42841;DHT22;28491;46.898;7.660;2022-08-11T16:11:07;27.90;29.50
42841;DHT22;28491;46.898;7.660;2022-08-11T16:13:34;27.70;28.80
42841;DHT22;28491;46.898;7.660;2022-08-11T16:16:02;27.70;28.90
42841;DHT22;28491;46.898;7.660;2022-08-11T16:18:56;27.70;28.40
42841;DHT22;28491;46.898;7.660;2022-08-11T16:21:32;27.60;28.60
42841;DHT22;28491;46.898;7.660;2022-08-11T16:24:00;27.50;29.20
42841;DHT22;28491;46.898;7.660;2022-08-11T16:26:28;27.50;28.80
42841;DHT22;28491;46.898;7.660;2022-08-11T16:28:57;27.40;28.20
42841;DHT22;28491;46.898;7.660;2022-08-11T16:31:24;27.40;28.90
42841;DHT22;28491;46.898;7.660;2022-08-11T16:33:53;27.30;28.80
42841;DHT22;28491;46.898;7.660;2022-08-11T16:36:20;27.30;28.70
42841;DHT22;28491;46.898;7.660;2022-08-11T16:39:09;27.20;28.40
42841;DHT22;28491;46.898;7.660;2022-08-11T16:41:36;27.10;28.40
42841;DHT22;28491;46.898;7.660;2022-08-11T16:44:23;27.10;27.90
42841;DHT22;28491;46.898;7.660;2022-08-11T16:47:12;27.00;28.00
42841;DHT22;28491;46.898;7.660;2022-08-11T16:49:50;26.90;28.30
42841;DHT22;28491;46.898;7.660;2022-08-11T16:52:17;26.90;28.30
42841;DHT22;28491;46.898;7.660;2022-08-11T16:54:43;26.80;28.20
42841;DHT22;28491;46.898;7.660;2022-08-11T16:57:17;26.80;28.00
42841;DHT22;28491;46.898;7.660;2022-08-11T17:00:05;26.70;28.10
42841;DHT22;28491;46.898;7.660;2022-08-11T17:02:35;26.60;28.70
42841;DHT22;28491;46.898;7.660;2022-08-11T17:05:24;26.50;28.00
42841;DHT22;28491;46.898;7.660;2022-08-11T17:08:09;26.50;28.10
42841;DHT22;28491;46.898;7.660;2022-08-11T17:10:58;26.40;27.80
42841;DHT22;28491;46.898;7.660;2022-08-11T17:14:00;26.40;28.00
42841;DHT22;28491;46.898;7.660;2022-08-11T17:16:36;26.40;27.90
42841;DHT22;28491;46.898;7.660;2022-08-11T17:19:12;26.30;28.40
42841;DHT22;28491;46.898;7.660;2022-08-11T17:21:48;26.30;28.50
42841;DHT22;28491;46.898;7.660;2022-08-11T17:24:37;26.20;28.80
42841;DHT22;28491;46.898;7.660;2022-08-11T17:27:04;26.10;28.70
42841;DHT22;28491;46.898;7.660;2022-08-11T17:29:40;26.00;29.70
42841;DHT22;28491;46.898;7.660;2022-08-11T17:32:10;25.90;30.10
42841;DHT22;28491;46.898;7.660;2022-08-11T17:35:00;25.90;31.90
42841;DHT22;28491;46.898;7.660;2022-08-11T17:37:46;25.80;31.10
42841;DHT22;28491;46.898;7.660;2022-08-11T17:40:18;25.60;30.90
42841;DHT22;28491;46.898;7.660;2022-08-11T17:42:52;25.40;30.20
42841;DHT22;28491;46.898;7.660;2022-08-11T17:45:41;25.40;30.80
42841;DHT22;28491;46.898;7.660;2022-08-11T17:48:28;25.40;30.10
42841;DHT22;28491;46.898;7.660;2022-08-11T17:53:42;25.40;31.20
42841;DHT22;28491;46.898;7.660;2022-08-11T17:56:29;25.20;30.20
42841;DHT22;28491;46.898;7.660;2022-08-11T17:59:15;25.10;30.30
42841;DHT22;28491;46.898;7.660;2022-08-11T18:02:02;25.10;29.50
42841;DHT22;28491;46.898;7.660;2022-08-11T18:04:49;25.00;29.40
42841;DHT22;28491;46.898;7.660;2022-08-11T18:07:17;24.90;29.40
42841;DHT22;28491;46.898;7.660;2022-08-11T18:10:04;24.90;29.60
42841;DHT22;28491;46.898;7.660;2022-08-11T18:12:50;24.90;28.40
42841;DHT22;28491;46.898;7.660;2022-08-11T18:15:38;24.90;29.30
42841;DHT22;28491;46.898;7.660;2022-08-11T18:18:23;24.80;28.70
42841;DHT22;28491;46.898;7.660;2022-08-11T18:21:07;24.70;28.20
42841;DHT22;28491;46.898;7.660;2022-08-11T18:23:53;24.70;28.50
42841;DHT22;28491;46.898;7.660;2022-08-11T18:26:41;24.50;28.70
42841;DHT22;28491;46.898;7.660;2022-08-11T18:29:29;24.50;29.10
42841;DHT22;28491;46.898;7.660;2022-08-11T18:32:16;24.40;28.90
42841;DHT22;28491;46.898;7.660;2022-08-11T18:35:03;24.20;29.60
42841;DHT22;28491;46.898;7.660;2022-08-11T18:37:49;24.10;30.00
42841;DHT22;28491;46.898;7.660;2022-08-11T18:40:35;24.00;29.30
42841;DHT22;28491;46.898;7.660;2022-08-11T18:43:20;23.90;29.00
42841;DHT22;28491;46.898;7.660;2022-08-11T18:46:07;23.90;29.70
42841;DHT22;28491;46.898;7.660;2022-08-11T18:48:58;23.80;29.30
42841;DHT22;28491;46.898;7.660;2022-08-11T18:51:46;23.60;29.90
42841;DHT22;28491;46.898;7.660;2022-08-11T18:54:33;23.50;29.90
42841;DHT22;28491;46.898;7.660;2022-08-11T18:57:19;23.30;30.00
42841;DHT22;28491;46.898;7.660;2022-08-11T19:00:04;23.20;30.40
42841;DHT22;28491;46.898;7.660;2022-08-11T19:02:49;23.20;30.30
42841;DHT22;28491;46.898;7.660;2022-08-11T19:05:35;23.10;30.50
42841;DHT22;28491;46.898;7.660;2022-08-11T19:08:22;23.00;30.80
42841;DHT22;28491;46.898;7.660;2022-08-11T19:11:09;22.90;31.00
42841;DHT22;28491;46.898;7.660;2022-08-11T19:13:54;22.90;30.90
42841;DHT22;28491;46.898;7.660;2022-08-11T19:16:40;22.80;31.20
42841;DHT22;28491;46.898;7.660;2022-08-11T19:19:26;22.70;31.80
42841;DHT22;28491;46.898;7.660;2022-08-11T19:22:10;22.60;33.70
42841;DHT22;28491;46.898;7.660;2022-08-11T19:24:56;22.50;33.40
42841;DHT22;28491;46.898;7.660;2022-08-11T19:27:42;22.40;34.80
42841;DHT22;28491;46.898;7.660;2022-08-11T19:30:30;22.30;34.10
42841;DHT22;28491;46.898;7.660;2022-08-11T19:33:16;22.10;34.70
42841;DHT22;28491;46.898;7.660;2022-08-11T19:36:01;22.00;34.70
42841;DHT22;28491;46.898;7.660;2022-08-11T19:38:46;21.90;35.50
42841;DHT22;28491;46.898;7.660;2022-08-11T19:41:32;22.00;36.90
42841;DHT22;28491;46.898;7.660;2022-08-11T19:44:17;21.90;37.20
42841;DHT22;28491;46.898;7.660;2022-08-11T19:47:03;21.70;35.50
42841;DHT22;28491;46.898;7.660;2022-08-11T19:49:48;21.60;36.50
42841;DHT22;28491;46.898;7.660;2022-08-11T19:52:33;21.50;36.90
42841;DHT22;28491;46.898;7.660;2022-08-11T19:55:19;21.50;36.50
42841;DHT22;28491;46.898;7.660;2022-08-11T19:58:04;21.60;37.50
42841;DHT22;28491;46.898;7.660;2022-08-11T20:00:48;21.60;36.30
42841;DHT22;28491;46.898;7.660;2022-08-11T20:03:32;21.50;36.30
42841;DHT22;28491;46.898;7.660;2022-08-11T20:06:17;21.50;35.80
42841;DHT22;28491;46.898;7.660;2022-08-11T20:09:03;21.40;36.90
42841;DHT22;28491;46.898;7.660;2022-08-11T20:11:52;21.40;35.90
42841;DHT22;28491;46.898;7.660;2022-08-11T20:14:39;21.30;36.80
42841;DHT22;28491;46.898;7.660;2022-08-11T20:17:27;21.30;36.80
42841;DHT22;28491;46.898;7.660;2022-08-11T20:20:13;21.30;36.20
42841;DHT22;28491;46.898;7.660;2022-08-11T20:23:01;21.20;35.90
42841;DHT22;28491;46.898;7.660;2022-08-11T20:25:46;21.10;36.80
42841;DHT22;28491;46.898;7.660;2022-08-11T20:28:31;21.10;37.40
42841;DHT22;28491;46.898;7.660;2022-08-11T20:31:17;21.00;37.00
42841;DHT22;28491;46.898;7.660;2022-08-11T20:34:04;21.00;37.20